Time;durP1;ratioP1;P1;durP2;ratioP2;P2;SDS_P1;SDS_P2;PMS_P1;PMS_P2;Temp;Humidity;BMP_temperature;BMP_pressure;BME280_temperature;BME280_humidity;BME280_pressure;Samples;Min_cycle;Max_cycle;Signal;HPM_P1;HPM_P2
2022/10/15 00:00:22;;;;;;;15.78;11.18;;;;;;;5.37;69.34;101421.20;1704284;81;21050;-67
2022/10/15 00:02:49;;;;;;;16.30;11.12;;;;;;;5.39;69.44;101423.94;1735081;80;21065;-67
2022/10/15 00:05:16;;;;;;;14.85;10.55;;;;;;;5.39;69.60;101418.64;1731662;82;21170;-67
2022/10/15 00:07:43;;;;;;;16.62;11.65;;;;;;;5.44;69.71;101419.89;1700804;84;21487;-68
2022/10/15 00:10:10;;;;;;;16.17;11.35;;;;;;;5.48;69.83;101423.25;1734430;80;21015;-67
2022/10/15 00:12:37;;;;;;;17.62;11.00;;;;;;;5.54;69.90;101415.02;1700241;84;21597;-67
2022/10/15 00:15:06;;;;;;;15.93;10.43;;;;;;;5.57;70.02;101417.25;1734810;80;21569;-67
2022/10/15 00:17:34;;;;;;;17.37;11.50;;;;;;;5.60;70.03;101412.36;1700670;84;21141;-67
2022/10/15 00:20:05;;;;;;;14.05;10.80;;;;;;;5.63;70.06;101414.61;1734304;80;20955;-67
2022/10/15 00:22:31;;;;;;;14.95;10.60;;;;;;;5.67;70.07;101414.20;1700562;84;21007;-67
2022/10/15 00:24:58;;;;;;;15.63;11.50;;;;;;;5.69;70.13;101418.27;1734366;80;21022;-68
2022/10/15 00:27:25;;;;;;;18.30;10.63;;;;;;;5.74;70.14;101417.16;1700893;84;21003;-67
2022/10/15 00:29:52;;;;;;;14.43;11.18;;;;;;;5.78;70.14;101417.05;1756540;81;21308;-67
2022/10/15 00:32:18;;;;;;;18.37;11.10;;;;;;;5.78;70.19;101414.40;1725801;83;20963;-67
2022/10/15 00:34:46;;;;;;;16.97;11.08;;;;;;;5.80;70.26;101407.58;1747672;80;21117;-67
2022/10/15 00:37:13;;;;;;;13.53;10.78;;;;;;;5.83;70.35;101409.31;1703209;81;21110;-67
2022/10/15 00:39:41;;;;;;;15.50;10.65;;;;;;;5.87;70.49;101410.53;1703220;81;21617;-67
2022/10/15 00:42:10;;;;;;;14.00;10.55;;;;;;;5.91;70.63;101405.63;1731588;82;21373;-68
2022/10/15 00:44:56;;;;;;;15.18;10.85;;;;;;;5.94;70.69;101408.42;1731732;81;21010;-68
2022/10/15 00:47:41;;;;;;;16.23;10.98;;;;;;;5.98;70.81;101410.44;1683595;81;21114;-67
2022/10/15 00:50:12;;;;;;;14.90;10.80;;;;;;;6.04;70.84;101410.95;1739955;80;21118;-67
2022/10/15 00:53:05;;;;;;;14.73;10.18;;;;;;;6.10;70.81;101413.30;1731794;82;20971;-68
2022/10/15 00:55:34;;;;;;;;;;;;;;;6.12;70.72;101412.59;1703894;84;21126;-68
2022/10/15 00:58:05;;;;;;;15.83;10.48;;;;;;;6.14;70.69;101412.38;1730874;82;20129;-68
2022/10/15 01:00:32;;;;;;;14.23;10.43;;;;;;;6.13;70.66;101412.08;1731270;82;21110;-67
2022/10/15 01:02:59;;;;;;;12.75;9.60;;;;;;;6.16;70.67;101415.12;1700894;84;20976;-68
2022/10/15 01:05:26;;;;;;;12.95;9.60;;;;;;;6.20;70.59;101411.55;1701042;83;21008;-67
2022/10/15 01:07:54;;;;;;;15.03;9.68;;;;;;;6.21;70.47;101406.03;1702679;83;21392;-67
2022/10/15 01:10:22;;;;;;;15.93;9.58;;;;;;;6.21;70.41;101410.52;1756339;81;20972;-67
2022/10/15 01:13:10;;;;;;;15.53;9.30;;;;;;;6.18;70.40;101409.09;1761888;81;21106;-66
2022/10/15 01:15:56;;;;;;;13.13;9.00;;;;;;;6.19;70.40;101413.39;1761828;81;21061;-68
2022/10/15 01:18:39;;;;;;;13.28;8.73;;;;;;;6.16;70.43;101415.12;1761858;81;20968;-67
2022/10/15 01:21:34;;;;;;;13.40;8.03;;;;;;;6.16;70.43;101412.48;1761837;81;20935;-67
2022/10/15 01:24:47;;;;;;;12.10;7.80;;;;;;;6.10;70.42;101411.97;1761852;81;21093;-67
2022/10/15 01:27:28;;;;;;;12.50;8.35;;;;;;;5.98;70.54;101410.44;1712809;83;21558;-67
2022/10/15 01:30:25;;;;;;;15.58;9.38;;;;;;;5.88;70.68;101408.17;1734607;80;21054;-68
2022/10/15 01:33:01;;;;;;;13.98;9.48;;;;;;;5.88;70.84;101410.02;1731026;82;21050;-66
2022/10/15 01:35:51;;;;;;;14.90;9.58;;;;;;;5.93;70.98;101410.77;1737028;80;21276;-68
2022/10/15 01:38:47;;;;;;;13.83;9.13;;;;;;;6.00;71.05;101412.91;1731350;82;26242;-67
2022/10/15 01:41:32;;;;;;;14.38;9.30;;;;;;;6.08;71.01;101408.70;1752114;81;21041;-67
2022/10/15 01:44:12;;;;;;;14.33;9.10;;;;;;;6.12;70.94;101407.29;1758574;80;21554;-68
2022/10/15 01:47:03;;;;;;;13.50;8.83;;;;;;;6.17;70.88;101409.31;1698653;84;21125;-66
2022/10/15 01:49:35;;;;;;;12.70;9.48;;;;;;;6.18;70.82;101413.07;1734079;81;21182;-67
2022/10/15 01:52:11;;;;;;;13.13;8.95;;;;;;;6.15;70.81;101405.52;1703326;81;21077;-67
2022/10/15 01:54:39;;;;;;;16.10;9.78;;;;;;;6.12;70.81;101412.59;1731480;81;20963;-67
2022/10/15 01:57:06;;;;;;;16.85;10.30;;;;;;;6.10;70.84;101414.11;1707545;83;21007;-68
2022/10/15 01:59:33;;;;;;;11.73;8.68;;;;;;;6.12;70.84;101417.91;1731632;82;21050;-67
2022/10/15 02:02:00;;;;;;;15.03;8.93;;;;;;;6.16;70.84;101416.97;1706614;82;21185;-67
2022/10/15 02:04:30;;;;;;;13.70;8.73;;;;;;;6.20;70.91;101414.20;1700523;84;21019;-67
2022/10/15 02:07:08;;;;;;;14.23;9.05;;;;;;;6.27;70.92;101423.77;1700863;83;20987;-67
2022/10/15 02:09:53;;;;;;;13.75;9.05;;;;;;;6.30;70.86;101424.69;1703251;81;21065;-67
2022/10/15 02:12:50;;;;;;;13.50;7.97;;;;;;;6.32;70.84;101423.17;1731039;82;21014;-67
2022/10/15 02:15:33;;;;;;;12.58;7.78;;;;;;;6.28;70.85;101426.72;1700850;83;20966;-67
2022/10/15 02:18:17;;;;;;;14.28;8.60;;;;;;;6.29;70.96;101429.70;1698835;81;21621;-67
2022/10/15 02:21:06;;;;;;;14.38;8.73;;;;;;;6.27;70.86;101429.08;1700811;84;21050;-67
2022/10/15 02:24:00;;;;;;;13.50;8.80;;;;;;;6.28;70.93;101423.26;1706827;82;21003;-67
2022/10/15 02:26:27;;;;;;;12.15;9.08;;;;;;;6.34;70.94;101429.06;1686482;83;21621;-67
2022/10/15 02:28:56;;;;;;;12.18;8.53;;;;;;;6.41;70.91;101421.90;1761854;81;21238;-67
2022/10/15 02:31:23;;;;;;;12.55;8.93;;;;;;;6.47;70.83;101425.58;1735559;82;21538;-67
2022/10/15 02:33:54;;;;;;;18.90;9.05;;;;;;;6.46;70.74;101422.11;1731346;82;21001;-66
2022/10/15 02:36:21;;;;;;;14.00;8.30;;;;;;;6.46;70.70;101432.72;1726020;83;21015;-67
2022/10/15 02:38:48;;;;;;;11.75;8.18;;;;;;;6.47;70.72;101440.98;1761580;81;21014;-67
2022/10/15 02:41:15;;;;;;;12.37;7.80;;;;;;;6.52;70.71;101440.37;1761333;81;21132;-67
2022/10/15 02:43:42;;;;;;;12.13;8.10;;;;;;;6.56;70.68;101442.91;1761728;81;20971;-67
2022/10/15 02:46:12;;;;;;;12.23;8.05;;;;;;;6.58;70.62;101435.53;1761914;81;21117;-67
2022/10/15 02:48:38;;;;;;;13.10;7.87;;;;;;;6.58;70.57;101440.36;1761851;81;21481;-66
2022/10/15 02:51:05;;;;;;;12.98;7.92;;;;;;;6.58;70.58;101438.19;1761818;81;21123;-67
2022/10/15 02:53:33;;;;;;;10.55;7.40;;;;;;;6.60;70.56;101444.11;1761807;81;21208;-67
2022/10/15 02:56:00;;;;;;;11.15;7.58;;;;;;;6.64;70.62;101440.01;1761313;81;21442;-67
2022/10/15 02:58:28;;;;;;;11.93;7.83;;;;;;;6.70;70.60;101436.52;1761817;81;21066;-67
2022/10/15 03:00:56;;;;;;;12.13;7.75;;;;;;;6.76;70.60;101433.55;1761869;81;21058;-67
2022/10/15 03:03:23;;;;;;;11.60;7.37;;;;;;;6.83;70.55;101434.85;1761685;81;21553;-68
2022/10/15 03:05:49;;;;;;;12.37;7.75;;;;;;;6.84;70.41;101434.63;1761963;81;21430;-68
2022/10/15 03:08:16;;;;;;;12.78;7.20;;;;;;;6.78;70.34;101434.98;1761728;81;21077;-66
2022/10/15 03:10:45;;;;;;;10.98;7.12;;;;;;;6.76;70.32;101432.22;1762149;81;21019;-67
2022/10/15 03:13:13;;;;;;;12.50;7.33;;;;;;;6.78;70.33;101436.30;1761520;81;21596;-67
2022/10/15 03:15:42;;;;;;;10.58;6.70;;;;;;;6.81;70.33;101435.89;1761714;81;21002;-67
2022/10/15 03:18:09;;;;;;;11.25;6.67;;;;;;;6.85;70.31;101438.94;1761908;81;21521;-67
2022/10/15 03:20:37;;;;;;;9.80;6.95;;;;;;;6.90;70.27;101436.97;1761571;80;20990;-67
2022/10/15 03:23:04;;;;;;;10.60;7.00;;;;;;;6.92;70.24;101431.75;1761984;81;21058;-66
2022/10/15 03:25:31;;;;;;;10.95;6.65;;;;;;;6.98;70.20;101436.73;1761798;81;21156;-67
2022/10/15 03:28:00;;;;;;;9.88;6.03;;;;;;;6.99;70.12;101436.52;1761410;81;21500;-68
2022/10/15 03:30:28;;;;;;;9.78;6.80;;;;;;;6.95;70.01;101434.51;1761684;81;21259;-67
2022/10/15 03:32:55;;;;;;;12.30;7.28;;;;;;;6.88;70.03;101435.86;1761752;81;21057;-67
2022/10/15 03:35:22;;;;;;;9.35;6.83;;;;;;;6.90;70.07;101435.64;1761860;81;21006;-67
2022/10/15 03:37:50;;;;;;;9.63;6.72;;;;;;;6.92;70.03;101436.25;1761479;81;21446;-67
2022/10/15 03:40:17;;;;;;;10.43;6.35;;;;;;;6.92;69.96;101430.42;1762017;81;21485;-67
2022/10/15 03:42:50;;;;;;;12.10;6.95;;;;;;;6.93;69.99;101430.72;1761753;81;21263;-67
2022/10/15 03:45:19;;;;;;;10.93;6.87;;;;;;;6.96;69.94;101432.14;1761261;81;21000;-67
2022/10/15 03:47:48;;;;;;;9.83;6.67;;;;;;;6.99;69.89;101428.55;1761595;81;21022;-67
2022/10/15 03:50:15;;;;;;;10.55;6.95;;;;;;;7.02;69.78;101427.31;1761683;81;21038;-67
2022/10/15 03:52:44;;;;;;;11.35;6.80;;;;;;;7.04;69.68;101429.23;1761718;81;21144;-67
2022/10/15 03:55:12;;;;;;;7.62;5.22;;;;;;;7.03;69.55;101435.58;1762106;81;21143;-67
2022/10/15 03:57:41;;;;;;;8.40;6.45;;;;;;;7.04;69.47;101430.55;1761895;81;21058;-67
2022/10/15 04:00:11;;;;;;;9.18;6.28;;;;;;;6.99;69.35;101433.05;1761867;81;21014;-67
2022/10/15 04:02:41;;;;;;;9.95;6.87;;;;;;;6.89;69.29;101440.66;1761460;81;21042;-68
2022/10/15 04:05:09;;;;;;;10.08;7.00;;;;;;;6.77;69.44;101443.95;1762010;81;21501;-68
2022/10/15 04:07:38;;;;;;;9.88;7.03;;;;;;;6.72;69.54;101438.98;1761405;81;21096;-67
2022/10/15 04:10:08;;;;;;;10.20;7.33;;;;;;;6.77;69.65;101442.63;1756682;81;21038;-68
2022/10/15 04:12:37;;;;;;;10.75;6.67;;;;;;;6.81;69.64;101441.20;1730863;82;21430;-67
2022/10/15 04:15:06;;;;;;;10.28;6.85;;;;;;;6.88;69.61;101441.17;1703283;81;21098;-68
2022/10/15 04:17:32;;;;;;;10.78;7.30;;;;;;;6.91;69.56;101439.42;1731091;82;21014;-67
2022/10/15 04:19:59;;;;;;;10.20;6.67;;;;;;;6.94;69.48;101449.63;1700503;84;21355;-67
2022/10/15 04:22:27;;;;;;;13.22;8.48;;;;;;;6.96;69.35;101448.89;1736352;80;21023;-67
2022/10/15 04:24:56;;;;;;;10.25;6.78;;;;;;;6.95;69.25;101450.44;1750076;80;21086;-68
2022/10/15 04:27:27;;;;;;;12.28;7.92;;;;;;;6.95;69.14;101453.91;1729097;83;21054;-67
2022/10/15 04:29:55;;;;;;;14.90;7.60;;;;;;;6.93;69.05;101452.48;1728908;82;21045;-67
2022/10/15 04:32:22;;;;;;;13.15;7.97;;;;;;;6.89;68.97;101448.11;1732312;80;21170;-67
2022/10/15 04:34:49;;;;;;;12.03;7.85;;;;;;;6.88;68.96;101449.63;1732158;80;21148;-67
2022/10/15 04:37:18;;;;;;;12.00;7.92;;;;;;;6.83;68.96;101443.63;1703444;81;21073;-68
2022/10/15 04:39:44;;;;;;;11.08;7.45;;;;;;;6.84;68.99;101439.94;1734226;80;21061;-68
2022/10/15 04:42:13;;;;;;;12.18;7.40;;;;;;;6.86;68.95;101437.91;1709362;81;21054;-68
2022/10/15 04:44:39;;;;;;;12.93;7.72;;;;;;;6.88;68.86;101438.52;1742945;81;21157;-68
2022/10/15 04:47:07;;;;;;;12.47;7.87;;;;;;;6.87;68.70;101444.02;1725078;83;21106;-67
2022/10/15 04:49:33;;;;;;;11.88;8.13;;;;;;;6.82;68.62;101432.72;1761243;81;21057;-69
2022/10/15 04:52:03;;;;;;;12.37;8.38;;;;;;;6.78;68.59;101443.46;1732659;81;21031;-67
2022/10/15 04:54:36;;;;;;;11.30;7.92;;;;;;;6.78;68.53;101446.12;1700091;84;21026;-67
2022/10/15 04:57:04;;;;;;;13.08;8.03;;;;;;;6.76;68.45;101442.84;1731411;81;21152;-67
2022/10/15 04:59:32;;;;;;;11.95;8.20;;;;;;;6.73;68.44;101446.73;1700225;84;20963;-67
2022/10/15 05:02:17;;;;;;;12.43;7.92;;;;;;;6.69;68.42;101446.85;1703310;83;21003;-68
2022/10/15 05:04:46;;;;;;;11.90;7.75;;;;;;;6.74;68.52;101443.55;1700195;83;21055;-67
2022/10/15 05:07:13;;;;;;;12.93;8.15;;;;;;;6.80;68.51;101452.83;1731561;82;21026;-68
2022/10/15 05:09:40;;;;;;;13.80;8.80;;;;;;;6.85;68.46;101452.21;1703827;81;21198;-67
2022/10/15 05:12:07;;;;;;;10.45;7.87;;;;;;;6.91;68.34;101458.50;1733276;80;21015;-67
2022/10/15 05:14:35;;;;;;;11.50;7.55;;;;;;;6.93;68.33;101459.93;1705814;82;21506;-67
2022/10/15 05:17:03;;;;;;;12.05;7.83;;;;;;;7.00;68.25;101457.25;1760862;81;22179;-67
2022/10/15 05:19:32;;;;;;;13.93;8.33;;;;;;;7.07;68.19;101458.55;1700446;81;21023;-67
2022/10/15 05:21:59;;;;;;;12.10;8.13;;;;;;;7.14;68.10;101459.33;1709649;81;21278;-66
2022/10/15 05:24:26;;;;;;;11.78;8.20;;;;;;;7.18;68.04;101463.21;1731623;82;21026;-67
2022/10/15 05:26:57;;;;;;;12.13;5.95;;;;;;;7.25;67.96;101460.81;1730420;82;21592;-67
2022/10/15 05:29:26;;;;;;;11.97;7.10;;;;;;;7.32;67.86;101466.61;1707014;81;21030;-67
2022/10/15 05:31:53;;;;;;;12.07;7.40;;;;;;;7.37;67.76;101457.47;1731745;82;21306;-67
2022/10/15 05:34:22;;;;;;;10.88;7.05;;;;;;;7.42;67.60;101463.78;1703449;81;21180;-67
2022/10/15 05:36:57;;;;;;;11.80;7.67;;;;;;;7.42;67.42;101455.81;1706055;81;20976;-66
2022/10/15 05:39:24;;;;;;;10.82;6.50;;;;;;;7.35;67.33;101472.83;1731742;82;21014;-66
2022/10/15 05:41:53;;;;;;;12.28;8.10;;;;;;;7.25;67.35;101468.78;1704071;81;21109;-68
2022/10/15 05:44:22;;;;;;;9.90;6.70;;;;;;;7.20;67.43;101470.44;1733440;80;21046;-67
2022/10/15 05:46:49;;;;;;;11.68;6.85;;;;;;;7.21;67.52;101472.90;1700585;84;21159;-67
2022/10/15 05:49:18;;;;;;;9.95;7.33;;;;;;;7.27;67.50;101470.73;1730555;82;20999;-67
2022/10/15 05:51:47;;;;;;;11.10;7.03;;;;;;;7.34;67.44;101472.51;1700244;84;21027;-67
2022/10/15 05:54:16;;;;;;;9.83;6.58;;;;;;;7.43;67.40;101472.56;1736183;80;21537;-67
2022/10/15 05:56:43;;;;;;;11.95;6.62;;;;;;;7.55;67.34;101471.38;1703554;81;21423;-66
2022/10/15 05:59:12;;;;;;;9.48;6.00;;;;;;;7.65;67.22;101475.71;1734411;80;21659;-67
2022/10/15 06:01:43;;;;;;;9.90;6.53;;;;;;;7.73;67.08;101470.13;1699921;84;21613;-68
2022/10/15 06:04:11;;;;;;;11.50;6.42;;;;;;;7.83;66.95;101480.28;1729004;81;21062;-68
2022/10/15 06:06:46;;;;;;;8.03;5.90;;;;;;;7.92;66.78;101476.33;1702808;81;20983;-67
2022/10/15 06:09:13;;;;;;;9.15;6.00;;;;;;;7.99;66.65;101476.59;1702136;84;21007;-67
2022/10/15 06:11:43;;;;;;;8.85;5.67;;;;;;;8.10;66.57;101473.73;1731303;82;21007;-67
2022/10/15 06:14:18;;;;;;;7.87;5.70;;;;;;;8.23;66.47;101472.29;1731079;82;21102;-67
2022/10/15 06:16:49;;;;;;;9.43;5.05;;;;;;;8.37;66.34;101470.84;1700425;84;21090;-67
2022/10/15 06:19:22;;;;;;;9.13;5.33;;;;;;;8.52;66.25;101473.97;1706543;82;21101;-67
2022/10/15 06:22:03;;;;;;;10.30;5.65;;;;;;;8.65;66.23;101473.86;1699761;84;21595;-67
2022/10/15 06:24:37;;;;;;;9.75;6.03;;;;;;;8.83;66.15;101474.37;1744321;80;21152;-69
2022/10/15 06:36:16;;;;;;;9.48;6.37;;;;;;;9.44;64.82;101475.22;1764894;80;21019;-67
2022/10/15 06:38:43;;;;;;;9.03;5.22;;;;;;;10.15;63.28;101478.86;1751146;81;21269;-66
2022/10/15 06:41:10;;;;;;;8.25;5.17;;;;;;;10.52;61.92;101471.97;1745463;82;21066;-67
2022/10/15 06:43:36;;;;;;;8.55;4.90;;;;;;;10.71;60.84;101478.80;1765973;80;21027;-67
2022/10/15 06:46:05;;;;;;;8.98;5.72;;;;;;;10.84;60.03;101476.40;1766804;81;21042;-68
2022/10/15 06:48:33;;;;;;;9.65;5.37;;;;;;;10.95;59.37;101481.42;1767396;80;20987;-67
2022/10/15 06:51:01;;;;;;;7.55;4.65;;;;;;;11.11;58.89;101478.53;1767066;80;21134;-68
2022/10/15 06:53:28;;;;;;;8.98;5.45;;;;;;;11.22;58.33;101484.35;1768131;81;21031;-67
2022/10/15 06:55:59;;;;;;;9.93;4.85;;;;;;;11.27;58.05;101482.59;1769628;81;21059;-67
2022/10/15 06:58:25;;;;;;;11.25;6.12;;;;;;;11.38;57.77;101487.60;1766929;81;21035;-66
2022/10/15 07:00:52;;;;;;;10.95;5.62;;;;;;;11.53;57.47;101488.42;1769736;81;21124;-67
2022/10/15 07:03:19;;;;;;;7.95;5.20;;;;;;;11.64;57.21;101488.88;1767037;80;21109;-66
2022/10/15 07:05:45;;;;;;;8.10;4.50;;;;;;;11.74;56.93;101487.70;1769727;81;21003;-67
2022/10/15 07:08:12;;;;;;;7.50;4.10;;;;;;;11.83;56.73;101486.80;1767418;81;20972;-68
2022/10/15 07:10:39;;;;;;;8.08;4.60;;;;;;;11.92;56.51;101492.07;1769791;81;21078;-67
2022/10/15 07:13:06;;;;;;;7.75;5.45;;;;;;;12.02;56.06;101483.92;1767443;81;22228;-66
2022/10/15 07:15:32;;;;;;;9.05;5.58;;;;;;;12.10;55.90;101497.70;1769636;81;21411;-67
2022/10/15 07:18:02;;;;;;;9.55;5.25;;;;;;;12.23;55.70;101497.09;1767236;81;20979;-66
2022/10/15 07:20:31;;;;;;;10.38;5.83;;;;;;;12.34;55.30;101490.81;1769829;81;21612;-67
2022/10/15 07:23:00;;;;;;;10.03;5.50;;;;;;;12.46;54.98;101494.75;1767332;80;21422;-67
2022/10/15 07:25:28;;;;;;;8.30;6.65;;;;;;;12.57;54.32;101491.98;1770023;81;21054;-67
2022/10/15 07:27:56;;;;;;;8.25;5.30;;;;;;;12.65;54.12;101486.18;1766680;81;21470;-66
2022/10/15 07:30:26;;;;;;;6.65;4.30;;;;;;;12.75;53.67;101485.50;1733957;82;21059;-67
2022/10/15 07:32:58;;;;;;;6.30;3.57;;;;;;;12.81;53.26;101493.90;1734265;82;21541;-67
2022/10/15 07:35:26;;;;;;;6.25;3.35;;;;;;;12.91;52.82;101488.66;1734587;82;21797;-67
2022/10/15 07:37:52;;;;;;;5.43;3.37;;;;;;;13.01;52.26;101489.31;1735946;82;21034;-68
2022/10/15 07:40:20;;;;;;;6.33;3.67;;;;;;;13.11;51.81;101489.43;1735889;82;21383;-68
2022/10/15 07:42:54;;;;;;;6.43;3.47;;;;;;;13.22;51.18;101490.34;1735996;82;22110;-66
2022/10/15 07:45:23;;;;;;;7.07;3.50;;;;;;;13.30;50.68;101493.97;1736106;82;21254;-66
2022/10/15 07:47:52;;;;;;;6.83;3.80;;;;;;;13.40;50.35;101487.91;1736177;82;21238;-67
2022/10/15 07:50:20;;;;;;;6.87;3.47;;;;;;;13.52;49.86;101493.10;1736015;82;21274;-66
2022/10/15 07:52:50;;;;;;;7.83;3.10;;;;;;;13.64;49.35;101489.73;1736102;82;21349;-67
2022/10/15 07:55:16;;;;;;;5.50;3.40;;;;;;;13.73;48.79;101493.59;1736129;82;21743;-67
2022/10/15 07:57:43;;;;;;;6.23;3.40;;;;;;;13.82;48.51;101488.57;1736133;82;21195;-67
2022/10/15 08:00:11;;;;;;;7.13;3.70;;;;;;;13.89;48.01;101495.07;1736307;82;21224;-67
2022/10/15 08:02:42;;;;;;;6.03;3.20;;;;;;;13.96;47.54;101493.78;1736188;82;21278;-67
2022/10/15 08:05:10;;;;;;;5.90;3.20;;;;;;;14.04;47.04;101493.30;1736234;82;21344;-67
2022/10/15 08:07:37;;;;;;;7.07;3.27;;;;;;;14.11;46.71;101497.10;1735850;82;21141;-68
2022/10/15 08:10:10;;;;;;;5.57;2.80;;;;;;;14.18;46.37;101494.20;1735248;82;21259;-68
2022/10/15 08:12:39;;;;;;;5.07;2.83;;;;;;;14.22;46.16;101496.67;1736222;82;21308;-67
2022/10/15 08:15:09;;;;;;;5.63;3.23;;;;;;;14.28;45.95;101494.27;1736199;82;21773;-67
2022/10/15 08:17:37;;;;;;;6.23;2.70;;;;;;;14.37;45.82;101491.91;1736012;82;21232;-68
2022/10/15 08:20:07;;;;;;;5.50;2.97;;;;;;;14.47;45.49;101500.03;1736002;82;21279;-67
2022/10/15 08:22:34;;;;;;;7.97;3.20;;;;;;;14.55;44.79;101494.22;1736156;82;21230;-67
2022/10/15 08:25:00;;;;;;;5.90;3.17;;;;;;;14.63;44.68;101499.62;1736064;82;21324;-67
2022/10/15 08:27:27;;;;;;;7.03;2.70;;;;;;;14.72;44.45;101500.22;1736103;81;21765;-68
2022/10/15 08:29:56;;;;;;;6.27;2.90;;;;;;;14.82;44.33;101497.30;1736128;82;21253;-68
2022/10/15 08:32:23;;;;;;;6.00;2.83;;;;;;;14.90;44.14;101488.17;1736316;82;21297;-66
2022/10/15 08:34:50;;;;;;;7.47;2.70;;;;;;;15.02;43.78;101490.66;1736173;82;21386;-68
2022/10/15 08:37:16;;;;;;;9.63;3.03;;;;;;;15.11;43.57;101495.00;1736133;82;21324;-67
2022/10/15 08:39:43;;;;;;;7.93;3.07;;;;;;;15.16;42.96;101499.84;1736258;82;21168;-68
2022/10/15 08:42:27;;;;;;;9.30;3.40;;;;;;;15.17;42.93;101496.09;1743587;79;21247;-68
2022/10/15 08:45:05;;;;;;;11.60;3.67;;;;;;;15.24;43.19;101496.66;1745983;81;21414;-68
2022/10/15 08:47:37;;;;;;;7.73;3.17;;;;;;;15.51;42.46;101493.48;1738763;82;21183;-67
2022/10/15 08:50:35;;;;;;;9.80;3.53;;;;;;;15.65;41.93;101489.18;1736763;82;21532;-67
2022/10/15 08:53:02;;;;;;;9.43;3.67;;;;;;;15.65;41.93;101489.18;1728961;82;21249;-67
2022/10/15 08:55:35;;;;;;;8.40;3.83;;;;;;;15.75;41.31;101487.07;1737170;82;21859;-66
2022/10/15 08:58:40;;;;;;;7.83;2.87;;;;;;;15.80;40.84;101487.09;1741490;79;21616;-67
2022/10/15 09:01:29;;;;;;;7.77;2.63;;;;;;;15.86;40.63;101484.13;1745844;81;21428;-67
2022/10/15 09:04:04;;;;;;;6.33;2.23;;;;;;;15.95;40.35;101484.37;1739740;81;21481;-68
2022/10/15 09:06:37;;;;;;;4.83;2.17;;;;;;;16.02;39.88;101484.90;1769675;81;21374;-68
2022/10/15 09:09:37;;;;;;;4.90;2.10;;;;;;;16.05;39.09;101480.31;1745523;79;21435;-67
2022/10/15 09:12:29;;;;;;;5.87;2.00;;;;;;;16.15;39.13;101484.34;1729271;82;21593;-67
2022/10/15 09:14:57;;;;;;;4.53;1.82;;;;;;;16.15;39.13;101484.34;1728641;80;22148;-67
2022/10/15 09:17:25;;;;;;;9.13;2.43;;;;;;;16.26;38.51;101476.27;1745129;79;21579;-67
2022/10/15 09:19:54;;;;;;;4.37;1.80;;;;;;;16.37;38.25;101475.16;1736870;81;21736;-67
2022/10/15 09:22:28;;;;;;;4.60;1.60;;;;;;;16.44;37.54;101480.27;1742135;79;21698;-67
2022/10/15 09:24:55;;;;;;;3.60;1.90;;;;;;;16.50;37.74;101477.83;1736291;82;21774;-67
2022/10/15 09:27:33;;;;;;;4.00;1.70;;;;;;;16.58;37.60;101477.25;1765015;79;21829;-66
2022/10/15 09:30:27;;;;;;;3.70;1.67;;;;;;;16.63;37.38;101480.75;1739523;79;21798;-67
2022/10/15 09:33:23;;;;;;;4.67;1.93;;;;;;;16.69;37.55;101476.70;1739059;82;22234;-67
2022/10/15 09:36:02;;;;;;;3.57;1.97;;;;;;;16.77;37.07;101478.84;1736400;81;21727;-68
2022/10/15 09:39:01;;;;;;;3.73;1.70;;;;;;;16.80;36.78;101472.35;1728822;82;21644;-67
2022/10/15 09:41:50;;;;;;;4.07;1.63;;;;;;;16.84;37.17;101478.00;1741631;79;21762;-67
2022/10/15 09:44:18;;;;;;;2.70;1.50;;;;;;;16.92;36.92;101469.34;1741514;79;22225;-67
2022/10/15 09:46:49;;;;;;;4.03;1.73;;;;;;;16.97;36.92;101467.95;1715186;81;21711;-67
2022/10/15 09:49:23;;;;;;;3.83;1.60;;;;;;;17.03;37.18;101468.74;1739498;82;21748;-66
2022/10/15 09:52:10;;;;;;;3.00;1.70;;;;;;;17.10;36.50;101465.99;1741277;79;21738;-66
2022/10/15 09:54:51;;;;;;;3.00;1.50;;;;;;;17.14;36.33;101460.84;1767915;79;21723;-66
2022/10/15 09:57:19;;;;;;;3.40;1.70;;;;;;;17.16;36.16;101466.78;1740869;81;22208;-67
2022/10/15 10:00:01;;;;;;;5.90;1.70;;;;;;;17.18;36.27;101466.52;1769790;81;21818;-68
2022/10/15 10:02:31;;;;;;;3.07;1.40;;;;;;;17.22;36.28;101466.22;1746854;79;21694;-67
2022/10/15 10:05:20;;;;;;;3.57;1.60;;;;;;;17.25;34.88;101460.27;1739058;82;21653;-65
2022/10/15 10:07:47;;;;;;;4.73;1.60;;;;;;;17.23;35.45;101459.17;1718754;79;21739;-66
2022/10/15 10:10:26;;;;;;;2.33;1.50;;;;;;;17.25;35.37;101464.31;1739386;82;21769;-67
2022/10/15 10:12:55;;;;;;;3.33;1.40;;;;;;;17.25;35.44;101465.66;1736894;82;21650;-68
2022/10/15 10:15:34;;;;;;;3.13;1.63;;;;;;;17.31;35.67;101468.05;1738822;82;22247;-68
2022/10/15 10:18:05;;;;;;;3.97;1.50;;;;;;;17.37;35.41;101466.10;1741278;80;21658;-67
2022/10/15 10:20:31;;;;;;;4.00;1.50;;;;;;;17.44;35.39;101461.73;1741491;79;21709;-67
2022/10/15 10:23:03;;;;;;;3.63;1.50;;;;;;;17.49;35.43;101459.81;1714595;82;21667;-68
2022/10/15 10:25:37;;;;;;;3.25;1.30;;;;;;;17.55;35.04;101457.34;1734469;81;20972;-67
2022/10/15 10:28:13;;;;;;;3.67;1.40;;;;;;;17.58;34.57;101466.23;1738901;80;21111;-67
2022/10/15 10:31:02;;;;;;;3.17;1.47;;;;;;;17.58;34.67;101463.53;1715679;82;21651;-66
2022/10/15 10:33:34;;;;;;;5.40;1.60;;;;;;;17.57;34.80;101461.94;1736842;81;21030;-66
2022/10/15 10:36:00;;;;;;;2.83;1.40;;;;;;;17.53;34.20;101450.61;1739052;82;21764;-67
2022/10/15 10:38:37;;;;;;;6.00;1.50;;;;;;;17.50;33.75;101457.37;1736933;82;21021;-68
2022/10/15 10:41:08;;;;;;;4.80;1.80;;;;;;;17.47;34.26;101463.36;1739404;82;21806;-66
2022/10/15 10:43:40;;;;;;;3.67;1.60;;;;;;;17.47;34.54;101449.86;1764897;81;21744;-67
2022/10/15 10:46:18;;;;;;;4.23;1.50;;;;;;;17.50;34.25;101451.97;1743964;81;21042;-67
2022/10/15 10:48:52;;;;;;;3.57;1.70;;;;;;;17.54;34.41;101453.04;1752518;79;21668;-67
2022/10/15 10:51:25;;;;;;;5.20;1.67;;;;;;;17.58;34.24;101452.73;1739519;82;21746;-67
2022/10/15 10:54:03;;;;;;;4.00;1.70;;;;;;;17.62;33.77;101444.87;1739462;81;21179;-67
2022/10/15 10:56:42;;;;;;;3.53;1.40;;;;;;;17.62;33.77;101444.87;1738969;82;21561;-67
2022/10/15 10:59:13;;;;;;;4.50;1.70;;;;;;;17.67;33.34;101450.77;1739609;79;21726;-67
2022/10/15 11:01:42;;;;;;;3.10;1.80;;;;;;;17.59;33.19;101446.78;1742316;79;21719;-67
2022/10/15 11:04:13;;;;;;;3.60;1.70;;;;;;;17.59;33.19;101446.78;1739804;79;21581;-67
2022/10/15 11:06:52;;;;;;;3.10;1.52;;;;;;;17.58;33.51;101450.58;1741597;79;22158;-67
2022/10/15 11:09:46;;;;;;;3.23;1.43;;;;;;;17.61;33.38;101450.56;1737145;82;20963;-66
2022/10/15 11:12:46;;;;;;;3.87;1.47;;;;;;;17.64;32.90;101445.40;1705258;81;21888;-68
2022/10/15 11:15:29;;;;;;;3.75;1.50;;;;;;;17.64;32.90;101445.40;1739245;81;21046;-66
2022/10/15 11:18:43;;;;;;;3.80;1.50;;;;;;;17.66;32.92;101449.16;1742070;79;21066;-67
2022/10/15 11:21:24;;;;;;;3.70;1.40;;;;;;;17.68;33.09;101445.64;1741894;79;21240;-66
2022/10/15 11:23:59;;;;;;;2.87;1.60;;;;;;;17.67;32.75;101445.36;1740489;79;21718;-67
2022/10/15 11:27:04;;;;;;;2.77;1.40;;;;;;;17.62;32.41;101440.81;1736088;82;21081;-67
2022/10/15 11:30:02;;;;;;;2.43;1.27;;;;;;;17.53;32.34;101442.50;1733474;82;21670;-68
2022/10/15 11:32:54;;;;;;;3.62;1.40;;;;;;;17.43;32.67;101439.88;1739620;80;21781;-66
2022/10/15 11:36:14;;;;;;;3.63;1.40;;;;;;;17.38;32.74;101433.98;1741767;79;21362;-68
2022/10/15 11:39:11;;;;;;;5.53;1.90;;;;;;;17.43;32.93;101435.28;1709895;82;21708;-67
2022/10/15 11:42:03;;;;;;;3.70;1.30;;;;;;;17.46;32.75;101433.91;1747216;79;21888;-69
2022/10/15 11:44:54;;;;;;;2.60;1.50;;;;;;;17.45;32.81;101432.31;1709773;84;20995;-67
2022/10/15 11:47:49;;;;;;;2.80;1.17;;;;;;;17.48;32.83;101431.20;1737866;81;22161;-67
2022/10/15 11:50:27;;;;;;;3.33;1.50;;;;;;;17.50;32.53;101435.77;1742375;79;21652;-66
2022/10/15 11:53:15;;;;;;;3.27;1.50;;;;;;;17.43;32.48;101429.87;1752583;79;21695;-67
2022/10/15 11:55:58;;;;;;;2.87;1.50;;;;;;;17.43;32.68;101429.87;1767327;81;21890;-68
2022/10/15 11:58:49;;;;;;;3.67;1.50;;;;;;;17.45;32.96;101427.72;1769829;81;21127;-68
2022/10/15 12:01:30;;;;;;;3.83;1.82;;;;;;;17.46;32.57;101423.11;1767095;80;20991;-66